GLO1914 SBCF-SBSP
Flight info
| Callsign | GLO1914 |
|---|---|
| Flight time | 0h 59m |
| Altitude | 30000 |
| Route | ANDEM UZ30 ENTIT |
| Aircraft | B738/M-SDE2E3FGHIRWXY/LB1 |
Departure
| Time | 2026-05-06 12:27 |
|---|---|
| Airport | Tancredo Neves International Airport (SBCF) |
Arrival
| Time | 2026-05-06 13:26 |
|---|---|
| Airport | Congonhas–Deputado Freitas Nobre Airport (SBSP) |
| Time | Latitude | Longitude | Altitude | Speed | Heading |
|---|---|---|---|---|---|
| 2026-05-06 12:05 | -19.62923 | -43.96745 | 2809 ft | 0 kts | 45° |
| 2026-05-06 12:17 | -19.62935 | -43.96757 | 2814 ft | 4 kts | 22° |
| 2026-05-06 12:17 | -19.62958 | -43.96758 | 2810 ft | 4 kts | 328° |
| 2026-05-06 12:17 | -19.62969 | -43.96750 | 2811 ft | 1 kts | 317° |
| 2026-05-06 12:20 | -19.62966 | -43.96752 | 2810 ft | 1 kts | 317° |
| 2026-05-06 12:20 | -19.62956 | -43.96762 | 2810 ft | 3 kts | 317° |
| 2026-05-06 12:20 | -19.62937 | -43.96781 | 2809 ft | 5 kts | 317° |
| 2026-05-06 12:20 | -19.62910 | -43.96808 | 2809 ft | 6 kts | 317° |
| 2026-05-06 12:21 | -19.62874 | -43.96841 | 2809 ft | 8 kts | 320° |
| 2026-05-06 12:21 | -19.62842 | -43.96888 | 2813 ft | 9 kts | 292° |
| 2026-05-06 12:21 | -19.62822 | -43.96953 | 2810 ft | 10 kts | 288° |
| 2026-05-06 12:21 | -19.62802 | -43.97025 | 2809 ft | 10 kts | 277° |
| 2026-05-06 12:22 | -19.62832 | -43.97091 | 2810 ft | 10 kts | 234° |
| 2026-05-06 12:22 | -19.62816 | -43.97156 | 2812 ft | 11 kts | 316° |
| 2026-05-06 12:22 | -19.62759 | -43.97212 | 2806 ft | 12 kts | 318° |
| 2026-05-06 12:22 | -19.62697 | -43.97271 | 2801 ft | 13 kts | 318° |
| 2026-05-06 12:23 | -19.62625 | -43.97338 | 2800 ft | 15 kts | 319° |
| 2026-05-06 12:23 | -19.62541 | -43.97416 | 2805 ft | 17 kts | 319° |
| 2026-05-06 12:23 | -19.62498 | -43.97456 | 2799 ft | 18 kts | 319° |
| 2026-05-06 12:23 | -19.62398 | -43.97549 | 2799 ft | 20 kts | 319° |
| 2026-05-06 12:24 | -19.62291 | -43.97648 | 2806 ft | 20 kts | 317° |
| 2026-05-06 12:24 | -19.62238 | -43.97727 | 2806 ft | 10 kts | 263° |
| 2026-05-06 12:24 | -19.62256 | -43.97761 | 2806 ft | 0 kts | 229° |
| 2026-05-06 12:25 | -19.62261 | -43.97766 | 2806 ft | 2 kts | 229° |
| 2026-05-06 12:25 | -19.62277 | -43.97779 | 2806 ft | 4 kts | 205° |
| 2026-05-06 12:26 | -19.62314 | -43.97785 | 2798 ft | 7 kts | 188° |
| 2026-05-06 12:26 | -19.62367 | -43.97792 | 2797 ft | 8 kts | 182° |
| 2026-05-06 12:26 | -19.62396 | -43.97778 | 2805 ft | 0 kts | 138° |
| 2026-05-06 12:26 | -19.62418 | -43.97757 | 2801 ft | 17 kts | 139° |
| 2026-05-06 12:27 | -19.62693 | -43.97502 | 2799 ft | 88 kts | 139° |
| 2026-05-06 12:27 | -19.63315 | -43.96926 | 2809 ft | 147 kts | 139° |
| 2026-05-06 12:27 | -19.64184 | -43.96132 | 3088 ft | 175 kts | 137° |
| 2026-05-06 12:27 | -19.65067 | -43.95311 | 4053 ft | 168 kts | 137° |
| 2026-05-06 12:28 | -19.65969 | -43.94469 | 4672 ft | 180 kts | 137° |
| 2026-05-06 12:28 | -19.66982 | -43.93537 | 5052 ft | 203 kts | 137° |
| 2026-05-06 12:28 | -19.68089 | -43.92514 | 5411 ft | 220 kts | 137° |
| 2026-05-06 12:28 | -19.69418 | -43.91678 | 5890 ft | 231 kts | 165° |
| 2026-05-06 12:29 | -19.71058 | -43.91755 | 6452 ft | 245 kts | 200° |
| 2026-05-06 12:29 | -19.72425 | -43.92806 | 7291 ft | 246 kts | 227° |
| 2026-05-06 12:29 | -19.73444 | -43.94279 | 7939 ft | 252 kts | 236° |
| 2026-05-06 12:29 | -19.74397 | -43.95832 | 8758 ft | 253 kts | 236° |
| 2026-05-06 12:30 | -19.75235 | -43.97504 | 9320 ft | 261 kts | 256° |
| 2026-05-06 12:30 | -19.75451 | -43.99475 | 9639 ft | 280 kts | 268° |
| 2026-05-06 12:30 | -19.75519 | -44.01636 | 9946 ft | 301 kts | 269° |
| 2026-05-06 12:30 | -19.75579 | -44.03892 | 10530 ft | 309 kts | 269° |
| 2026-05-06 12:31 | -19.75648 | -44.06254 | 10747 ft | 332 kts | 269° |
| 2026-05-06 12:31 | -19.75731 | -44.08778 | 10929 ft | 353 kts | 268° |
| 2026-05-06 12:31 | -19.75827 | -44.11445 | 11230 ft | 368 kts | 268° |
| 2026-05-06 12:31 | -19.75927 | -44.14138 | 11851 ft | 370 kts | 268° |
| 2026-05-06 12:32 | -19.76030 | -44.16875 | 12625 ft | 370 kts | 268° |
| 2026-05-06 12:32 | -19.76136 | -44.19615 | 13285 ft | 374 kts | 268° |
| 2026-05-06 12:32 | -19.76239 | -44.22391 | 13912 ft | 377 kts | 268° |
| 2026-05-06 12:32 | -19.76303 | -44.24240 | 14338 ft | 379 kts | 268° |
| 2026-05-06 12:33 | -19.76429 | -44.28015 | 15203 ft | 384 kts | 267° |
| 2026-05-06 12:33 | -19.76492 | -44.29896 | 15629 ft | 386 kts | 267° |
| 2026-05-06 12:33 | -19.76602 | -44.32759 | 16274 ft | 389 kts | 266° |
| 2026-05-06 12:33 | -19.76719 | -44.35643 | 16892 ft | 392 kts | 266° |
| 2026-05-06 12:34 | -19.76836 | -44.38549 | 17483 ft | 396 kts | 266° |
| 2026-05-06 12:34 | -19.76951 | -44.41480 | 18070 ft | 398 kts | 266° |
| 2026-05-06 12:34 | -19.77273 | -44.44405 | 18604 ft | 400 kts | 252° |
| 2026-05-06 12:34 | -19.78250 | -44.47139 | 19177 ft | 401 kts | 246° |
| 2026-05-06 12:35 | -19.79306 | -44.49891 | 19711 ft | 404 kts | 246° |
| 2026-05-06 12:35 | -19.80359 | -44.52672 | 20216 ft | 407 kts | 247° |
| 2026-05-06 12:35 | -19.81399 | -44.55481 | 20720 ft | 410 kts | 247° |
| 2026-05-06 12:35 | -19.82434 | -44.58318 | 21211 ft | 413 kts | 247° |
| 2026-05-06 12:36 | -19.83471 | -44.61181 | 21694 ft | 416 kts | 247° |
| 2026-05-06 12:36 | -19.84510 | -44.64055 | 22165 ft | 418 kts | 247° |
| 2026-05-06 12:36 | -19.85557 | -44.66948 | 22640 ft | 420 kts | 247° |
| 2026-05-06 12:36 | -19.86602 | -44.69831 | 23031 ft | 424 kts | 247° |
| 2026-05-06 12:37 | -19.87664 | -44.72762 | 23460 ft | 426 kts | 247° |
| 2026-05-06 12:37 | -19.88732 | -44.75712 | 23877 ft | 428 kts | 247° |
| 2026-05-06 12:37 | -19.89805 | -44.78676 | 24288 ft | 430 kts | 247° |
| 2026-05-06 12:37 | -19.90885 | -44.81662 | 24680 ft | 432 kts | 247° |
| 2026-05-06 12:38 | -19.91965 | -44.84651 | 25087 ft | 434 kts | 247° |
| 2026-05-06 12:38 | -19.93047 | -44.87652 | 25506 ft | 435 kts | 246° |
| 2026-05-06 12:38 | -19.94133 | -44.90662 | 25915 ft | 436 kts | 246° |
| 2026-05-06 12:38 | -19.95220 | -44.93677 | 26301 ft | 437 kts | 246° |
| 2026-05-06 12:39 | -19.96310 | -44.96702 | 26692 ft | 438 kts | 246° |
| 2026-05-06 12:39 | -19.97387 | -44.99695 | 27076 ft | 439 kts | 246° |
| 2026-05-06 12:39 | -19.98478 | -45.02729 | 27540 ft | 438 kts | 246° |
| 2026-05-06 12:39 | -19.99562 | -45.05747 | 28085 ft | 434 kts | 246° |
| 2026-05-06 12:40 | -20.00634 | -45.08734 | 28675 ft | 430 kts | 245° |
| 2026-05-06 12:40 | -20.01143 | -45.10150 | 28937 ft | 428 kts | 245° |
| 2026-05-06 12:40 | -20.02163 | -45.12988 | 29461 ft | 425 kts | 245° |
| 2026-05-06 12:40 | -20.03214 | -45.15916 | 30007 ft | 421 kts | 245° |
| 2026-05-06 12:41 | -20.04061 | -45.18277 | 30301 ft | 420 kts | 245° |
| 2026-05-06 12:41 | -20.05736 | -45.22941 | 30312 ft | 420 kts | 245° |
| 2026-05-06 12:42 | -20.07800 | -45.28710 | 30310 ft | 414 kts | 245° |
| 2026-05-06 12:42 | -20.09843 | -45.34423 | 30308 ft | 413 kts | 245° |
| 2026-05-06 12:43 | -20.12570 | -45.39648 | 30314 ft | 403 kts | 223° |
| 2026-05-06 12:43 | -20.16848 | -45.43485 | 30310 ft | 403 kts | 217° |
| 2026-05-06 12:44 | -20.21242 | -45.47242 | 30300 ft | 406 kts | 217° |
| 2026-05-06 12:44 | -20.25614 | -45.51059 | 30309 ft | 407 kts | 218° |
| 2026-05-06 12:45 | -20.29990 | -45.54908 | 30302 ft | 408 kts | 218° |
| 2026-05-06 12:46 | -20.36587 | -45.60678 | 30303 ft | 408 kts | 217° |
| 2026-05-06 12:46 | -20.40961 | -45.64493 | 30304 ft | 407 kts | 218° |
| 2026-05-06 12:47 | -20.45349 | -45.68327 | 30299 ft | 407 kts | 218° |
| 2026-05-06 12:47 | -20.49723 | -45.72152 | 30307 ft | 406 kts | 218° |
| 2026-05-06 12:48 | -20.54095 | -45.75979 | 30302 ft | 406 kts | 218° |
| 2026-05-06 12:48 | -20.58463 | -45.79806 | 30292 ft | 406 kts | 218° |
| 2026-05-06 12:49 | -20.62826 | -45.83631 | 30294 ft | 406 kts | 218° |
| 2026-05-06 12:49 | -20.67163 | -45.87437 | 30294 ft | 406 kts | 218° |
| 2026-05-06 12:50 | -20.71530 | -45.91273 | 30299 ft | 407 kts | 218° |
| 2026-05-06 12:50 | -20.75913 | -45.95130 | 30291 ft | 407 kts | 218° |
| 2026-05-06 12:51 | -20.80291 | -45.98994 | 30286 ft | 408 kts | 218° |
| 2026-05-06 12:51 | -20.84642 | -46.02836 | 30283 ft | 407 kts | 218° |
| 2026-05-06 12:52 | -20.87932 | -46.05746 | 30275 ft | 408 kts | 218° |
| 2026-05-06 12:52 | -20.91807 | -46.09171 | 30279 ft | 407 kts | 218° |
| 2026-05-06 12:53 | -20.95776 | -46.12641 | 30270 ft | 406 kts | 214° |
| 2026-05-06 12:53 | -21.00719 | -46.15476 | 30279 ft | 403 kts | 199° |
| 2026-05-06 12:54 | -21.06063 | -46.17316 | 30279 ft | 404 kts | 198° |
| 2026-05-06 12:54 | -21.11417 | -46.19177 | 30268 ft | 405 kts | 199° |
| 2026-05-06 12:55 | -21.16749 | -46.21060 | 30270 ft | 406 kts | 198° |
| 2026-05-06 12:55 | -21.22140 | -46.22906 | 30255 ft | 406 kts | 198° |
| 2026-05-06 12:56 | -21.27552 | -46.24731 | 30253 ft | 407 kts | 198° |
| 2026-05-06 12:56 | -21.32960 | -46.26564 | 30255 ft | 408 kts | 198° |
| 2026-05-06 12:57 | -21.38384 | -46.28409 | 30269 ft | 409 kts | 198° |
| 2026-05-06 12:57 | -21.43771 | -46.30244 | 30263 ft | 409 kts | 198° |
| 2026-05-06 12:58 | -21.49204 | -46.32097 | 30262 ft | 410 kts | 198° |
| 2026-05-06 12:58 | -21.54633 | -46.33951 | 30258 ft | 410 kts | 198° |
| 2026-05-06 12:59 | -21.60071 | -46.35809 | 30270 ft | 410 kts | 198° |
| 2026-05-06 12:59 | -21.65509 | -46.37668 | 30268 ft | 410 kts | 198° |
| 2026-05-06 13:00 | -21.70922 | -46.39613 | 30265 ft | 410 kts | 199° |
| 2026-05-06 13:00 | -21.76310 | -46.41609 | 30267 ft | 409 kts | 199° |
| 2026-05-06 13:01 | -21.81699 | -46.43603 | 30268 ft | 409 kts | 199° |
| 2026-05-06 13:01 | -21.87092 | -46.45589 | 30269 ft | 409 kts | 199° |
| 2026-05-06 13:02 | -21.92442 | -46.47559 | 30267 ft | 409 kts | 199° |
| 2026-05-06 13:02 | -21.97832 | -46.49544 | 30269 ft | 409 kts | 199° |
| 2026-05-06 13:03 | -22.03213 | -46.51527 | 30269 ft | 409 kts | 199° |
| 2026-05-06 13:03 | -22.08595 | -46.53512 | 30279 ft | 409 kts | 199° |
| 2026-05-06 13:04 | -22.13981 | -46.55502 | 30275 ft | 409 kts | 199° |
| 2026-05-06 13:04 | -22.19337 | -46.57480 | 30280 ft | 409 kts | 199° |
| 2026-05-06 13:05 | -22.24689 | -46.59459 | 30190 ft | 398 kts | 199° |
| 2026-05-06 13:05 | -22.27289 | -46.60421 | 29864 ft | 391 kts | 199° |
| 2026-05-06 13:05 | -22.29845 | -46.61367 | 29416 ft | 387 kts | 199° |
| 2026-05-06 13:05 | -22.32377 | -46.62305 | 28973 ft | 383 kts | 199° |
| 2026-05-06 13:06 | -22.34885 | -46.63235 | 28517 ft | 380 kts | 199° |
| 2026-05-06 13:06 | -22.37383 | -46.64161 | 28056 ft | 377 kts | 199° |
| 2026-05-06 13:06 | -22.39853 | -46.65076 | 27602 ft | 374 kts | 200° |
| 2026-05-06 13:06 | -22.42200 | -46.66261 | 27094 ft | 372 kts | 214° |
| 2026-05-06 13:07 | -22.44178 | -46.68068 | 26572 ft | 374 kts | 223° |
| 2026-05-06 13:07 | -22.46032 | -46.70010 | 26011 ft | 377 kts | 223° |
| 2026-05-06 13:07 | -22.47928 | -46.71986 | 25437 ft | 380 kts | 223° |
| 2026-05-06 13:07 | -22.49850 | -46.73959 | 24871 ft | 382 kts | 223° |
| 2026-05-06 13:08 | -22.51791 | -46.75923 | 24285 ft | 382 kts | 222° |
| 2026-05-06 13:08 | -22.53739 | -46.77883 | 23716 ft | 383 kts | 223° |
| 2026-05-06 13:08 | -22.55690 | -46.79849 | 23217 ft | 382 kts | 222° |
| 2026-05-06 13:08 | -22.57612 | -46.81789 | 23052 ft | 373 kts | 223° |
| 2026-05-06 13:09 | -22.59495 | -46.83694 | 22842 ft | 366 kts | 223° |
| 2026-05-06 13:09 | -22.61344 | -46.85566 | 22664 ft | 363 kts | 223° |
| 2026-05-06 13:09 | -22.63203 | -46.87449 | 22487 ft | 368 kts | 223° |
| 2026-05-06 13:09 | -22.65084 | -46.89353 | 22304 ft | 372 kts | 222° |
| 2026-05-06 13:10 | -22.66945 | -46.91239 | 22103 ft | 370 kts | 222° |
| 2026-05-06 13:10 | -22.68924 | -46.92993 | 21908 ft | 366 kts | 214° |
| 2026-05-06 13:10 | -22.71056 | -46.94477 | 21739 ft | 363 kts | 211° |
| 2026-05-06 13:10 | -22.73221 | -46.95879 | 21536 ft | 362 kts | 210° |
| 2026-05-06 13:11 | -22.75376 | -46.97274 | 21359 ft | 361 kts | 211° |
| 2026-05-06 13:11 | -22.77520 | -46.98688 | 21164 ft | 360 kts | 211° |
| 2026-05-06 13:11 | -22.79656 | -47.00121 | 20997 ft | 359 kts | 211° |
| 2026-05-06 13:11 | -22.81773 | -47.01557 | 20817 ft | 359 kts | 212° |
| 2026-05-06 13:12 | -22.83889 | -47.02999 | 20636 ft | 359 kts | 212° |
| 2026-05-06 13:12 | -22.86003 | -47.04443 | 20454 ft | 359 kts | 212° |
| 2026-05-06 13:12 | -22.88092 | -47.05870 | 20263 ft | 359 kts | 212° |
| 2026-05-06 13:12 | -22.90229 | -47.07323 | 19738 ft | 365 kts | 211° |
| 2026-05-06 13:13 | -22.92381 | -47.08779 | 19258 ft | 365 kts | 211° |
| 2026-05-06 13:13 | -22.94531 | -47.10230 | 18747 ft | 363 kts | 211° |
| 2026-05-06 13:13 | -22.96677 | -47.11680 | 18235 ft | 361 kts | 211° |
| 2026-05-06 13:13 | -22.98805 | -47.13120 | 17737 ft | 360 kts | 211° |
| 2026-05-06 13:14 | -23.00947 | -47.14484 | 17219 ft | 358 kts | 203° |
| 2026-05-06 13:14 | -23.03339 | -47.15126 | 16738 ft | 355 kts | 184° |
| 2026-05-06 13:14 | -23.05762 | -47.14958 | 16259 ft | 353 kts | 170° |
| 2026-05-06 13:14 | -23.08174 | -47.14435 | 15755 ft | 352 kts | 168° |
| 2026-05-06 13:15 | -23.10561 | -47.13873 | 15259 ft | 350 kts | 168° |
| 2026-05-06 13:15 | -23.12940 | -47.13313 | 14769 ft | 349 kts | 168° |
| 2026-05-06 13:15 | -23.15314 | -47.12767 | 14285 ft | 348 kts | 168° |
| 2026-05-06 13:15 | -23.17677 | -47.12235 | 13789 ft | 347 kts | 168° |
| 2026-05-06 13:16 | -23.20043 | -47.11711 | 13313 ft | 346 kts | 168° |
| 2026-05-06 13:16 | -23.22398 | -47.11190 | 12825 ft | 345 kts | 168° |
| 2026-05-06 13:16 | -23.24751 | -47.10671 | 12352 ft | 344 kts | 168° |
| 2026-05-06 13:16 | -23.27088 | -47.10159 | 11915 ft | 341 kts | 168° |
| 2026-05-06 13:17 | -23.29382 | -47.09658 | 11509 ft | 338 kts | 167° |
| 2026-05-06 13:17 | -23.31684 | -47.09154 | 11123 ft | 335 kts | 168° |
| 2026-05-06 13:17 | -23.33758 | -47.08700 | 10759 ft | 332 kts | 167° |
| 2026-05-06 13:17 | -23.35994 | -47.08208 | 10357 ft | 330 kts | 167° |
| 2026-05-06 13:18 | -23.38221 | -47.07720 | 10237 ft | 318 kts | 167° |
| 2026-05-06 13:18 | -23.40320 | -47.07182 | 10200 ft | 303 kts | 157° |
| 2026-05-06 13:18 | -23.42024 | -47.05945 | 10132 ft | 289 kts | 132° |
| 2026-05-06 13:18 | -23.43153 | -47.04202 | 10016 ft | 278 kts | 114° |
| 2026-05-06 13:19 | -23.43792 | -47.02232 | 9732 ft | 274 kts | 106° |
| 2026-05-06 13:19 | -23.44309 | -47.00231 | 9393 ft | 274 kts | 105° |
| 2026-05-06 13:19 | -23.44803 | -46.98239 | 8960 ft | 271 kts | 105° |
| 2026-05-06 13:19 | -23.45294 | -46.96279 | 8463 ft | 271 kts | 105° |
| 2026-05-06 13:20 | -23.45795 | -46.94311 | 8023 ft | 269 kts | 105° |
| 2026-05-06 13:20 | -23.46295 | -46.92362 | 7700 ft | 263 kts | 105° |
| 2026-05-06 13:20 | -23.46777 | -46.90488 | 7499 ft | 252 kts | 105° |
| 2026-05-06 13:20 | -23.47242 | -46.88672 | 7232 ft | 245 kts | 105° |
| 2026-05-06 13:21 | -23.47698 | -46.86919 | 7065 ft | 236 kts | 105° |
| 2026-05-06 13:21 | -23.47970 | -46.85872 | 6906 ft | 232 kts | 105° |
| 2026-05-06 13:21 | -23.48331 | -46.84485 | 6703 ft | 227 kts | 105° |
| 2026-05-06 13:21 | -23.48748 | -46.82863 | 6418 ft | 223 kts | 105° |
| 2026-05-06 13:22 | -23.49031 | -46.81760 | 6188 ft | 222 kts | 105° |
| 2026-05-06 13:22 | -23.49585 | -46.79625 | 5804 ft | 218 kts | 104° |
| 2026-05-06 13:22 | -23.49845 | -46.78595 | 5789 ft | 207 kts | 105° |
| 2026-05-06 13:22 | -23.50230 | -46.77125 | 5564 ft | 199 kts | 105° |
| 2026-05-06 13:23 | -23.50603 | -46.75683 | 5215 ft | 197 kts | 105° |
| 2026-05-06 13:23 | -23.50993 | -46.74255 | 4883 ft | 194 kts | 111° |
| 2026-05-06 13:23 | -23.51821 | -46.73155 | 4616 ft | 187 kts | 148° |
| 2026-05-06 13:23 | -23.52897 | -46.72441 | 4458 ft | 179 kts | 144° |
| 2026-05-06 13:24 | -23.53927 | -46.71697 | 4290 ft | 176 kts | 146° |
| 2026-05-06 13:24 | -23.54958 | -46.70976 | 4160 ft | 177 kts | 146° |
| 2026-05-06 13:24 | -23.56000 | -46.70266 | 3954 ft | 177 kts | 148° |
| 2026-05-06 13:24 | -23.57007 | -46.69569 | 3775 ft | 164 kts | 144° |
| 2026-05-06 13:25 | -23.57942 | -46.68914 | 3523 ft | 155 kts | 145° |
| 2026-05-06 13:25 | -23.58841 | -46.68292 | 3353 ft | 153 kts | 145° |
| 2026-05-06 13:25 | -23.59748 | -46.67665 | 3152 ft | 154 kts | 146° |
| 2026-05-06 13:25 | -23.60640 | -46.67047 | 2991 ft | 149 kts | 146° |
| 2026-05-06 13:26 | -23.61537 | -46.66434 | 2757 ft | 153 kts | 147° |
| 2026-05-06 13:26 | -23.62331 | -46.65886 | 2613 ft | 143 kts | 147° |
| 2026-05-06 13:26 | -23.63031 | -46.65396 | 2609 ft | 62 kts | 147° |
| 2026-05-06 13:26 | -23.63246 | -46.65246 | 2608 ft | 23 kts | 147° |
| 2026-05-06 13:27 | -23.63299 | -46.65212 | 2608 ft | 8 kts | 160° |
| 2026-05-06 13:27 | -23.63364 | -46.65204 | 2605 ft | 11 kts | 178° |
| 2026-05-06 13:27 | -23.63425 | -46.65241 | 2601 ft | 10 kts | 265° |
| 2026-05-06 13:27 | -23.63381 | -46.65295 | 2601 ft | 9 kts | 328° |
| 2026-05-06 13:28 | -23.63330 | -46.65330 | 2601 ft | 9 kts | 330° |
| 2026-05-06 13:28 | -23.63281 | -46.65365 | 2601 ft | 8 kts | 326° |
| 2026-05-06 13:28 | -23.63233 | -46.65398 | 2601 ft | 8 kts | 327° |
| 2026-05-06 13:28 | -23.63187 | -46.65431 | 2601 ft | 8 kts | 327° |
| 2026-05-06 13:29 | -23.63141 | -46.65463 | 2601 ft | 8 kts | 327° |
| 2026-05-06 13:29 | -23.63098 | -46.65493 | 2601 ft | 7 kts | 327° |
| 2026-05-06 13:29 | -23.63055 | -46.65519 | 2601 ft | 7 kts | 348° |
| 2026-05-06 13:29 | -23.63006 | -46.65525 | 2602 ft | 7 kts | 345° |
| 2026-05-06 13:30 | -23.62963 | -46.65549 | 2602 ft | 7 kts | 327° |
| 2026-05-06 13:30 | -23.62921 | -46.65579 | 2602 ft | 7 kts | 327° |
| 2026-05-06 13:30 | -23.62879 | -46.65609 | 2602 ft | 8 kts | 327° |
| 2026-05-06 13:30 | -23.62848 | -46.65651 | 2601 ft | 7 kts | 288° |
| 2026-05-06 13:31 | -23.62819 | -46.65697 | 2600 ft | 8 kts | 322° |
| 2026-05-06 13:31 | -23.62778 | -46.65726 | 2600 ft | 7 kts | 328° |
| 2026-05-06 13:31 | -23.62738 | -46.65753 | 2600 ft | 7 kts | 328° |
| 2026-05-06 13:31 | -23.62714 | -46.65770 | 2600 ft | 2 kts | 327° |
| 2026-05-06 13:32 | -23.62701 | -46.65779 | 2600 ft | 3 kts | 321° |
| 2026-05-06 13:32 | -23.62702 | -46.65800 | 2600 ft | 3 kts | 236° |
| 2026-05-06 13:32 | -23.62709 | -46.65809 | 2600 ft | 2 kts | 231° |
| 2026-05-06 13:32 | -23.62714 | -46.65817 | 2600 ft | 1 kts | 236° |
| 2026-05-06 13:33 | -23.62718 | -46.65823 | 2600 ft | 0 kts | 236° |